sensor_id;sensor_type;location;lat;lon;timestamp;P1;durP1;ratioP1;P2;durP2;ratioP2
43646;SDS011;56152;49.996;18.980;2023-07-31T00:00:17;5.53;;;3.80;;
43646;SDS011;56152;49.996;18.980;2023-07-31T00:05:21;7.25;;;4.15;;
43646;SDS011;56152;49.996;18.980;2023-07-31T00:10:25;7.35;;;3.97;;
43646;SDS011;56152;49.996;18.980;2023-07-31T00:15:27;11.20;;;3.97;;
43646;SDS011;56152;49.996;18.980;2023-07-31T00:20:29;6.43;;;3.97;;
43646;SDS011;56152;49.996;18.980;2023-07-31T00:25:32;6.70;;;3.92;;
43646;SDS011;56152;49.996;18.980;2023-07-31T00:30:34;7.75;;;3.80;;
43646;SDS011;56152;49.996;18.980;2023-07-31T00:35:37;8.02;;;4.03;;
43646;SDS011;56152;49.996;18.980;2023-07-31T00:40:40;6.60;;;3.28;;
43646;SDS011;56152;49.996;18.980;2023-07-31T00:45:42;8.30;;;3.85;;
43646;SDS011;56152;49.996;18.980;2023-07-31T00:50:44;6.07;;;3.85;;
43646;SDS011;56152;49.996;18.980;2023-07-31T00:55:48;5.63;;;3.30;;
43646;SDS011;56152;49.996;18.980;2023-07-31T01:00:55;6.10;;;3.60;;
43646;SDS011;56152;49.996;18.980;2023-07-31T01:06:00;5.55;;;3.20;;
43646;SDS011;56152;49.996;18.980;2023-07-31T01:11:14;7.13;;;3.40;;
43646;SDS011;56152;49.996;18.980;2023-07-31T01:16:18;5.47;;;3.38;;
43646;SDS011;56152;49.996;18.980;2023-07-31T01:21:30;6.50;;;3.60;;
43646;SDS011;56152;49.996;18.980;2023-07-31T01:26:49;6.80;;;3.33;;
43646;SDS011;56152;49.996;18.980;2023-07-31T01:31:57;3.90;;;2.95;;
43646;SDS011;56152;49.996;18.980;2023-07-31T01:37:02;5.55;;;3.35;;
43646;SDS011;56152;49.996;18.980;2023-07-31T01:42:06;5.40;;;2.88;;
43646;SDS011;56152;49.996;18.980;2023-07-31T01:47:08;7.43;;;3.00;;
43646;SDS011;56152;49.996;18.980;2023-07-31T01:52:10;4.20;;;3.17;;
43646;SDS011;56152;49.996;18.980;2023-07-31T01:57:14;4.82;;;3.10;;
43646;SDS011;56152;49.996;18.980;2023-07-31T02:02:16;4.63;;;3.22;;
43646;SDS011;56152;49.996;18.980;2023-07-31T02:07:19;7.18;;;3.47;;
43646;SDS011;56152;49.996;18.980;2023-07-31T02:12:22;6.05;;;3.03;;
43646;SDS011;56152;49.996;18.980;2023-07-31T02:17:24;7.60;;;3.13;;
43646;SDS011;56152;49.996;18.980;2023-07-31T02:22:26;6.40;;;3.30;;
43646;SDS011;56152;49.996;18.980;2023-07-31T02:27:30;4.60;;;2.53;;
43646;SDS011;56152;49.996;18.980;2023-07-31T02:32:32;3.80;;;2.75;;
43646;SDS011;56152;49.996;18.980;2023-07-31T02:37:34;6.13;;;2.85;;
43646;SDS011;56152;49.996;18.980;2023-07-31T02:42:40;5.35;;;2.88;;
43646;SDS011;56152;49.996;18.980;2023-07-31T02:47:42;5.78;;;2.90;;
43646;SDS011;56152;49.996;18.980;2023-07-31T02:52:44;4.43;;;2.97;;
43646;SDS011;56152;49.996;18.980;2023-07-31T02:57:47;4.22;;;2.75;;
43646;SDS011;56152;49.996;18.980;2023-07-31T03:02:49;4.63;;;3.15;;
43646;SDS011;56152;49.996;18.980;2023-07-31T03:07:53;5.97;;;2.70;;
43646;SDS011;56152;49.996;18.980;2023-07-31T03:12:58;4.22;;;3.10;;
43646;SDS011;56152;49.996;18.980;2023-07-31T03:18:00;6.57;;;3.40;;
43646;SDS011;56152;49.996;18.980;2023-07-31T03:23:02;7.85;;;3.17;;
43646;SDS011;56152;49.996;18.980;2023-07-31T03:28:06;5.80;;;3.35;;
43646;SDS011;56152;49.996;18.980;2023-07-31T03:33:08;7.03;;;3.53;;
43646;SDS011;56152;49.996;18.980;2023-07-31T03:38:10;6.47;;;2.80;;
43646;SDS011;56152;49.996;18.980;2023-07-31T03:43:14;6.43;;;2.97;;
43646;SDS011;56152;49.996;18.980;2023-07-31T03:48:17;4.45;;;3.08;;
43646;SDS011;56152;49.996;18.980;2023-07-31T03:53:21;5.78;;;2.90;;
43646;SDS011;56152;49.996;18.980;2023-07-31T03:58:25;6.43;;;3.38;;
43646;SDS011;56152;49.996;18.980;2023-07-31T04:03:27;5.88;;;2.63;;
43646;SDS011;56152;49.996;18.980;2023-07-31T04:08:32;5.03;;;2.83;;
43646;SDS011;56152;49.996;18.980;2023-07-31T04:13:38;4.05;;;2.55;;
43646;SDS011;56152;49.996;18.980;2023-07-31T04:18:40;6.45;;;2.60;;
43646;SDS011;56152;49.996;18.980;2023-07-31T04:23:43;6.25;;;3.38;;
43646;SDS011;56152;49.996;18.980;2023-07-31T04:28:47;9.35;;;2.90;;
43646;SDS011;56152;49.996;18.980;2023-07-31T04:33:51;7.35;;;3.00;;
43646;SDS011;56152;49.996;18.980;2023-07-31T04:38:54;13.23;;;3.47;;
43646;SDS011;56152;49.996;18.980;2023-07-31T04:43:59;5.65;;;3.15;;
43646;SDS011;56152;49.996;18.980;2023-07-31T04:49:01;6.63;;;3.70;;
43646;SDS011;56152;49.996;18.980;2023-07-31T04:54:03;7.85;;;3.22;;
43646;SDS011;56152;49.996;18.980;2023-07-31T04:59:08;6.47;;;3.30;;
43646;SDS011;56152;49.996;18.980;2023-07-31T05:04:12;8.88;;;3.20;;
43646;SDS011;56152;49.996;18.980;2023-07-31T05:09:14;5.10;;;2.60;;
43646;SDS011;56152;49.996;18.980;2023-07-31T05:14:18;7.00;;;2.42;;
43646;SDS011;56152;49.996;18.980;2023-07-31T05:19:21;5.95;;;2.33;;
43646;SDS011;56152;49.996;18.980;2023-07-31T05:24:23;7.00;;;2.45;;
43646;SDS011;56152;49.996;18.980;2023-07-31T05:29:27;7.22;;;2.78;;
43646;SDS011;56152;49.996;18.980;2023-07-31T05:34:29;8.13;;;3.10;;
43646;SDS011;56152;49.996;18.980;2023-07-31T05:39:31;8.38;;;3.22;;
43646;SDS011;56152;49.996;18.980;2023-07-31T05:44:35;7.13;;;3.20;;
43646;SDS011;56152;49.996;18.980;2023-07-31T05:49:37;6.20;;;2.53;;
43646;SDS011;56152;49.996;18.980;2023-07-31T05:54:40;5.32;;;2.30;;
43646;SDS011;56152;49.996;18.980;2023-07-31T05:59:45;7.25;;;2.63;;
43646;SDS011;56152;49.996;18.980;2023-07-31T06:04:50;4.82;;;2.60;;
43646;SDS011;56152;49.996;18.980;2023-07-31T06:09:55;4.47;;;1.95;;
43646;SDS011;56152;49.996;18.980;2023-07-31T06:15:06;4.30;;;2.30;;
43646;SDS011;56152;49.996;18.980;2023-07-31T06:20:08;6.15;;;2.80;;
43646;SDS011;56152;49.996;18.980;2023-07-31T06:25:11;3.30;;;2.38;;
43646;SDS011;56152;49.996;18.980;2023-07-31T06:30:18;4.60;;;2.58;;
43646;SDS011;56152;49.996;18.980;2023-07-31T06:40:25;6.80;;;2.67;;
43646;SDS011;56152;49.996;18.980;2023-07-31T06:45:29;8.02;;;3.65;;
43646;SDS011;56152;49.996;18.980;2023-07-31T06:50:31;9.25;;;4.22;;
43646;SDS011;56152;49.996;18.980;2023-07-31T06:55:33;7.20;;;2.30;;
43646;SDS011;56152;49.996;18.980;2023-07-31T07:00:37;5.10;;;2.90;;
43646;SDS011;56152;49.996;18.980;2023-07-31T07:05:40;7.57;;;2.50;;
43646;SDS011;56152;49.996;18.980;2023-07-31T07:10:42;5.18;;;1.70;;
43646;SDS011;56152;49.996;18.980;2023-07-31T07:15:49;3.67;;;1.85;;
43646;SDS011;56152;49.996;18.980;2023-07-31T07:20:52;4.38;;;2.35;;
43646;SDS011;56152;49.996;18.980;2023-07-31T07:27:22;6.28;;;2.20;;
43646;SDS011;56152;49.996;18.980;2023-07-31T07:31:59;4.53;;;2.10;;
43646;SDS011;56152;49.996;18.980;2023-07-31T07:37:42;5.95;;;2.08;;
43646;SDS011;56152;49.996;18.980;2023-07-31T07:42:27;10.73;;;2.50;;
43646;SDS011;56152;49.996;18.980;2023-07-31T07:47:32;12.00;;;2.45;;
43646;SDS011;56152;49.996;18.980;2023-07-31T07:52:35;6.93;;;2.10;;
43646;SDS011;56152;49.996;18.980;2023-07-31T07:57:38;4.53;;;2.08;;
43646;SDS011;56152;49.996;18.980;2023-07-31T08:02:42;4.82;;;2.00;;
43646;SDS011;56152;49.996;18.980;2023-07-31T08:07:45;6.18;;;2.40;;
43646;SDS011;56152;49.996;18.980;2023-07-31T08:12:51;4.60;;;1.85;;
43646;SDS011;56152;49.996;18.980;2023-07-31T08:17:54;5.32;;;2.10;;
43646;SDS011;56152;49.996;18.980;2023-07-31T08:22:59;6.68;;;2.38;;
43646;SDS011;56152;49.996;18.980;2023-07-31T08:28:01;5.43;;;2.30;;
43646;SDS011;56152;49.996;18.980;2023-07-31T08:33:05;4.60;;;2.53;;
43646;SDS011;56152;49.996;18.980;2023-07-31T08:38:07;5.82;;;2.22;;
43646;SDS011;56152;49.996;18.980;2023-07-31T08:43:09;6.35;;;2.60;;
43646;SDS011;56152;49.996;18.980;2023-07-31T08:48:17;7.43;;;2.53;;
43646;SDS011;56152;49.996;18.980;2023-07-31T08:53:24;6.10;;;2.80;;
43646;SDS011;56152;49.996;18.980;2023-07-31T08:58:27;4.65;;;2.58;;
43646;SDS011;56152;49.996;18.980;2023-07-31T09:03:37;7.65;;;2.42;;
43646;SDS011;56152;49.996;18.980;2023-07-31T09:08:42;5.78;;;2.20;;
43646;SDS011;56152;49.996;18.980;2023-07-31T09:13:44;4.90;;;2.40;;
43646;SDS011;56152;49.996;18.980;2023-07-31T09:18:54;5.63;;;2.40;;
43646;SDS011;56152;49.996;18.980;2023-07-31T09:23:57;3.78;;;2.03;;
43646;SDS011;56152;49.996;18.980;2023-07-31T09:29:04;2.35;;;1.90;;
43646;SDS011;56152;49.996;18.980;2023-07-31T09:34:11;3.63;;;2.10;;
43646;SDS011;56152;49.996;18.980;2023-07-31T09:39:14;2.20;;;1.70;;
43646;SDS011;56152;49.996;18.980;2023-07-31T09:44:37;5.38;;;1.85;;
43646;SDS011;56152;49.996;18.980;2023-07-31T09:49:46;4.25;;;2.25;;
43646;SDS011;56152;49.996;18.980;2023-07-31T09:54:48;4.90;;;2.17;;
43646;SDS011;56152;49.996;18.980;2023-07-31T09:59:54;4.47;;;2.30;;
43646;SDS011;56152;49.996;18.980;2023-07-31T10:04:59;6.28;;;2.70;;
43646;SDS011;56152;49.996;18.980;2023-07-31T10:10:04;5.70;;;2.08;;
43646;SDS011;56152;49.996;18.980;2023-07-31T10:15:08;4.55;;;2.95;;
43646;SDS011;56152;49.996;18.980;2023-07-31T10:20:13;6.05;;;2.40;;
43646;SDS011;56152;49.996;18.980;2023-07-31T10:25:16;6.68;;;2.47;;
43646;SDS011;56152;49.996;18.980;2023-07-31T10:30:22;7.40;;;2.65;;
43646;SDS011;56152;49.996;18.980;2023-07-31T10:35:29;4.90;;;2.50;;
43646;SDS011;56152;49.996;18.980;2023-07-31T10:40:37;5.53;;;2.42;;
43646;SDS011;56152;49.996;18.980;2023-07-31T10:45:43;6.70;;;2.30;;
43646;SDS011;56152;49.996;18.980;2023-07-31T10:50:48;5.57;;;2.80;;
43646;SDS011;56152;49.996;18.980;2023-07-31T10:55:51;5.82;;;2.42;;
43646;SDS011;56152;49.996;18.980;2023-07-31T11:00:55;8.43;;;2.17;;
43646;SDS011;56152;49.996;18.980;2023-07-31T11:06:01;4.47;;;2.20;;
43646;SDS011;56152;49.996;18.980;2023-07-31T11:16:11;6.07;;;2.22;;
43646;SDS011;56152;49.996;18.980;2023-07-31T11:21:16;3.70;;;1.95;;
43646;SDS011;56152;49.996;18.980;2023-07-31T11:26:19;4.53;;;2.10;;
43646;SDS011;56152;49.996;18.980;2023-07-31T11:31:22;3.75;;;2.08;;
43646;SDS011;56152;49.996;18.980;2023-07-31T11:36:26;7.35;;;2.40;;
43646;SDS011;56152;49.996;18.980;2023-07-31T11:41:28;4.25;;;2.10;;
43646;SDS011;56152;49.996;18.980;2023-07-31T11:46:31;5.72;;;2.42;;
43646;SDS011;56152;49.996;18.980;2023-07-31T11:51:35;6.10;;;2.13;;
43646;SDS011;56152;49.996;18.980;2023-07-31T11:56:37;8.82;;;3.10;;
43646;SDS011;56152;49.996;18.980;2023-07-31T12:01:40;6.22;;;2.38;;
43646;SDS011;56152;49.996;18.980;2023-07-31T12:06:45;5.68;;;2.40;;
43646;SDS011;56152;49.996;18.980;2023-07-31T12:11:47;8.65;;;2.40;;
43646;SDS011;56152;49.996;18.980;2023-07-31T12:16:52;4.60;;;1.95;;
43646;SDS011;56152;49.996;18.980;2023-07-31T12:21:57;5.45;;;1.92;;
43646;SDS011;56152;49.996;18.980;2023-07-31T12:27:02;4.05;;;1.85;;
43646;SDS011;56152;49.996;18.980;2023-07-31T12:32:19;8.63;;;1.90;;
43646;SDS011;56152;49.996;18.980;2023-07-31T12:37:23;3.35;;;1.67;;
43646;SDS011;56152;49.996;18.980;2023-07-31T12:42:25;4.88;;;2.35;;
43646;SDS011;56152;49.996;18.980;2023-07-31T12:47:28;6.47;;;2.13;;
43646;SDS011;56152;49.996;18.980;2023-07-31T12:52:33;4.43;;;2.00;;
43646;SDS011;56152;49.996;18.980;2023-07-31T12:57:35;3.58;;;1.73;;
43646;SDS011;56152;49.996;18.980;2023-07-31T13:02:38;3.75;;;1.67;;
43646;SDS011;56152;49.996;18.980;2023-07-31T13:07:42;7.85;;;2.08;;
43646;SDS011;56152;49.996;18.980;2023-07-31T13:12:44;9.40;;;1.92;;
43646;SDS011;56152;49.996;18.980;2023-07-31T13:17:48;5.30;;;2.00;;
43646;SDS011;56152;49.996;18.980;2023-07-31T13:22:52;6.32;;;2.20;;
43646;SDS011;56152;49.996;18.980;2023-07-31T13:27:54;7.80;;;2.40;;
43646;SDS011;56152;49.996;18.980;2023-07-31T13:32:57;5.15;;;2.08;;
43646;SDS011;56152;49.996;18.980;2023-07-31T13:38:01;6.03;;;1.95;;
43646;SDS011;56152;49.996;18.980;2023-07-31T13:43:06;4.72;;;2.25;;
43646;SDS011;56152;49.996;18.980;2023-07-31T13:48:08;6.70;;;1.88;;
43646;SDS011;56152;49.996;18.980;2023-07-31T13:53:12;6.93;;;1.98;;
43646;SDS011;56152;49.996;18.980;2023-07-31T13:58:19;3.42;;;2.00;;
43646;SDS011;56152;49.996;18.980;2023-07-31T14:03:24;4.78;;;2.20;;
43646;SDS011;56152;49.996;18.980;2023-07-31T14:08:31;6.93;;;1.80;;
43646;SDS011;56152;49.996;18.980;2023-07-31T14:13:35;6.55;;;2.30;;
43646;SDS011;56152;49.996;18.980;2023-07-31T14:18:38;4.97;;;2.00;;
43646;SDS011;56152;49.996;18.980;2023-07-31T14:23:48;7.60;;;1.88;;
43646;SDS011;56152;49.996;18.980;2023-07-31T14:28:54;3.72;;;1.90;;
43646;SDS011;56152;49.996;18.980;2023-07-31T14:33:57;6.68;;;2.00;;
43646;SDS011;56152;49.996;18.980;2023-07-31T14:39:03;5.15;;;2.10;;
43646;SDS011;56152;49.996;18.980;2023-07-31T14:44:14;3.25;;;1.98;;
43646;SDS011;56152;49.996;18.980;2023-07-31T14:49:17;3.58;;;1.85;;
43646;SDS011;56152;49.996;18.980;2023-07-31T14:54:25;3.88;;;1.75;;
43646;SDS011;56152;49.996;18.980;2023-07-31T14:59:28;3.40;;;1.52;;
43646;SDS011;56152;49.996;18.980;2023-07-31T15:04:39;3.47;;;1.77;;
43646;SDS011;56152;49.996;18.980;2023-07-31T15:09:44;6.75;;;1.90;;
43646;SDS011;56152;49.996;18.980;2023-07-31T15:14:49;2.97;;;1.52;;
43646;SDS011;56152;49.996;18.980;2023-07-31T15:19:53;9.15;;;2.08;;
43646;SDS011;56152;49.996;18.980;2023-07-31T15:24:58;8.82;;;2.30;;
43646;SDS011;56152;49.996;18.980;2023-07-31T15:30:03;7.60;;;2.53;;
43646;SDS011;56152;49.996;18.980;2023-07-31T15:35:08;14.60;;;2.67;;
43646;SDS011;56152;49.996;18.980;2023-07-31T15:40:13;8.75;;;2.22;;
43646;SDS011;56152;49.996;18.980;2023-07-31T15:45:15;4.80;;;1.95;;
43646;SDS011;56152;49.996;18.980;2023-07-31T15:50:19;14.43;;;2.28;;
43646;SDS011;56152;49.996;18.980;2023-07-31T15:55:25;6.90;;;2.35;;
43646;SDS011;56152;49.996;18.980;2023-07-31T16:00:27;4.28;;;2.00;;
43646;SDS011;56152;49.996;18.980;2023-07-31T16:05:30;4.80;;;2.08;;
43646;SDS011;56152;49.996;18.980;2023-07-31T16:10:36;5.78;;;1.95;;
43646;SDS011;56152;49.996;18.980;2023-07-31T16:15:39;4.30;;;2.22;;
43646;SDS011;56152;49.996;18.980;2023-07-31T16:20:43;15.35;;;2.95;;
43646;SDS011;56152;49.996;18.980;2023-07-31T16:25:48;17.73;;;3.35;;
43646;SDS011;56152;49.996;18.980;2023-07-31T16:30:53;4.22;;;2.38;;
43646;SDS011;56152;49.996;18.980;2023-07-31T16:35:55;10.20;;;2.15;;
43646;SDS011;56152;49.996;18.980;2023-07-31T16:40:59;6.32;;;2.45;;
43646;SDS011;56152;49.996;18.980;2023-07-31T16:46:03;3.53;;;1.88;;
43646;SDS011;56152;49.996;18.980;2023-07-31T16:51:06;4.95;;;2.20;;
43646;SDS011;56152;49.996;18.980;2023-07-31T16:56:10;8.68;;;2.25;;
43646;SDS011;56152;49.996;18.980;2023-07-31T17:01:16;5.35;;;2.30;;
43646;SDS011;56152;49.996;18.980;2023-07-31T17:06:19;4.50;;;2.38;;
43646;SDS011;56152;49.996;18.980;2023-07-31T17:11:23;9.68;;;2.50;;
43646;SDS011;56152;49.996;18.980;2023-07-31T17:16:28;10.77;;;2.33;;
43646;SDS011;56152;49.996;18.980;2023-07-31T17:21:35;5.43;;;1.98;;
43646;SDS011;56152;49.996;18.980;2023-07-31T17:26:46;10.63;;;2.47;;
43646;SDS011;56152;49.996;18.980;2023-07-31T17:31:48;4.65;;;2.50;;
43646;SDS011;56152;49.996;18.980;2023-07-31T17:36:50;9.25;;;2.42;;
43646;SDS011;56152;49.996;18.980;2023-07-31T17:41:55;6.30;;;2.15;;
43646;SDS011;56152;49.996;18.980;2023-07-31T17:46:57;8.55;;;2.35;;
43646;SDS011;56152;49.996;18.980;2023-07-31T17:52:01;12.48;;;2.50;;
43646;SDS011;56152;49.996;18.980;2023-07-31T17:57:12;22.83;;;3.20;;
43646;SDS011;56152;49.996;18.980;2023-07-31T18:02:16;17.77;;;5.10;;
43646;SDS011;56152;49.996;18.980;2023-07-31T18:07:18;26.35;;;3.42;;
43646;SDS011;56152;49.996;18.980;2023-07-31T18:12:25;31.25;;;4.95;;
43646;SDS011;56152;49.996;18.980;2023-07-31T18:17:27;15.80;;;3.03;;
43646;SDS011;56152;49.996;18.980;2023-07-31T18:22:35;14.75;;;2.90;;
43646;SDS011;56152;49.996;18.980;2023-07-31T18:27:40;17.90;;;2.83;;
43646;SDS011;56152;49.996;18.980;2023-07-31T18:32:51;14.55;;;2.33;;
43646;SDS011;56152;49.996;18.980;2023-07-31T18:37:54;15.90;;;3.08;;
43646;SDS011;56152;49.996;18.980;2023-07-31T18:42:57;22.17;;;3.05;;
43646;SDS011;56152;49.996;18.980;2023-07-31T18:47:59;16.02;;;2.67;;
43646;SDS011;56152;49.996;18.980;2023-07-31T18:53:01;22.80;;;5.55;;
43646;SDS011;56152;49.996;18.980;2023-07-31T18:58:05;18.17;;;5.03;;
43646;SDS011;56152;49.996;18.980;2023-07-31T19:03:07;14.77;;;4.63;;
43646;SDS011;56152;49.996;18.980;2023-07-31T19:08:12;13.85;;;5.32;;
43646;SDS011;56152;49.996;18.980;2023-07-31T19:13:35;14.32;;;5.47;;
43646;SDS011;56152;49.996;18.980;2023-07-31T19:23:41;12.13;;;4.72;;
43646;SDS011;56152;49.996;18.980;2023-07-31T19:28:45;17.95;;;6.10;;
43646;SDS011;56152;49.996;18.980;2023-07-31T19:33:47;25.77;;;6.70;;
43646;SDS011;56152;49.996;18.980;2023-07-31T19:38:50;14.88;;;6.28;;
43646;SDS011;56152;49.996;18.980;2023-07-31T19:43:54;20.77;;;7.07;;
43646;SDS011;56152;49.996;18.980;2023-07-31T19:48:56;33.47;;;14.73;;
43646;SDS011;56152;49.996;18.980;2023-07-31T19:53:59;24.23;;;11.90;;
43646;SDS011;56152;49.996;18.980;2023-07-31T19:59:04;26.38;;;10.13;;
43646;SDS011;56152;49.996;18.980;2023-07-31T20:04:06;15.70;;;5.65;;
43646;SDS011;56152;49.996;18.980;2023-07-31T20:09:08;13.43;;;7.13;;
43646;SDS011;56152;49.996;18.980;2023-07-31T20:14:11;20.60;;;7.38;;
43646;SDS011;56152;49.996;18.980;2023-07-31T20:19:15;15.50;;;6.45;;
43646;SDS011;56152;49.996;18.980;2023-07-31T20:24:17;11.45;;;6.60;;
43646;SDS011;56152;49.996;18.980;2023-07-31T20:29:20;18.95;;;7.68;;
43646;SDS011;56152;49.996;18.980;2023-07-31T20:34:22;20.35;;;7.43;;
43646;SDS011;56152;49.996;18.980;2023-07-31T20:39:24;13.48;;;7.20;;
43646;SDS011;56152;49.996;18.980;2023-07-31T20:44:28;16.27;;;7.60;;
43646;SDS011;56152;49.996;18.980;2023-07-31T20:49:29;17.95;;;7.97;;
43646;SDS011;56152;49.996;18.980;2023-07-31T20:54:31;18.13;;;7.57;;
43646;SDS011;56152;49.996;18.980;2023-07-31T20:59:35;14.25;;;6.40;;
43646;SDS011;56152;49.996;18.980;2023-07-31T21:04:37;16.13;;;6.32;;
43646;SDS011;56152;49.996;18.980;2023-07-31T21:09:39;15.55;;;6.68;;
43646;SDS011;56152;49.996;18.980;2023-07-31T21:14:45;13.57;;;6.05;;
43646;SDS011;56152;49.996;18.980;2023-07-31T21:19:47;11.50;;;5.82;;
43646;SDS011;56152;49.996;18.980;2023-07-31T21:24:49;12.35;;;6.35;;
43646;SDS011;56152;49.996;18.980;2023-07-31T21:29:53;14.55;;;5.97;;
43646;SDS011;56152;49.996;18.980;2023-07-31T21:34:55;13.25;;;6.30;;
43646;SDS011;56152;49.996;18.980;2023-07-31T21:39:56;12.20;;;5.53;;
43646;SDS011;56152;49.996;18.980;2023-07-31T21:45:00;17.35;;;5.78;;
43646;SDS011;56152;49.996;18.980;2023-07-31T21:50:02;11.60;;;5.53;;
43646;SDS011;56152;49.996;18.980;2023-07-31T21:55:07;10.82;;;5.32;;
43646;SDS011;56152;49.996;18.980;2023-07-31T22:00:11;11.60;;;5.25;;
43646;SDS011;56152;49.996;18.980;2023-07-31T22:05:14;10.85;;;5.25;;
43646;SDS011;56152;49.996;18.980;2023-07-31T22:10:16;9.02;;;5.10;;
43646;SDS011;56152;49.996;18.980;2023-07-31T22:15:20;14.73;;;6.55;;
43646;SDS011;56152;49.996;18.980;2023-07-31T22:20:22;19.77;;;10.80;;
43646;SDS011;56152;49.996;18.980;2023-07-31T22:25:26;17.42;;;8.52;;
43646;SDS011;56152;49.996;18.980;2023-07-31T22:30:29;27.10;;;12.35;;
43646;SDS011;56152;49.996;18.980;2023-07-31T22:35:31;20.73;;;11.48;;
43646;SDS011;56152;49.996;18.980;2023-07-31T22:40:35;24.20;;;12.00;;
43646;SDS011;56152;49.996;18.980;2023-07-31T22:45:43;22.52;;;11.23;;
43646;SDS011;56152;49.996;18.980;2023-07-31T22:50:46;22.42;;;10.43;;
43646;SDS011;56152;49.996;18.980;2023-07-31T22:55:48;21.55;;;10.68;;
43646;SDS011;56152;49.996;18.980;2023-07-31T23:00:59;21.48;;;9.73;;
43646;SDS011;56152;49.996;18.980;2023-07-31T23:06:02;24.35;;;10.73;;
43646;SDS011;56152;49.996;18.980;2023-07-31T23:11:04;15.32;;;8.25;;
43646;SDS011;56152;49.996;18.980;2023-07-31T23:16:07;20.02;;;10.43;;
43646;SDS011;56152;49.996;18.980;2023-07-31T23:21:09;19.60;;;9.93;;
43646;SDS011;56152;49.996;18.980;2023-07-31T23:26:11;15.50;;;9.98;;
43646;SDS011;56152;49.996;18.980;2023-07-31T23:31:15;20.23;;;10.85;;
43646;SDS011;56152;49.996;18.980;2023-07-31T23:36:17;22.17;;;10.77;;
43646;SDS011;56152;49.996;18.980;2023-07-31T23:41:19;22.83;;;10.88;;
43646;SDS011;56152;49.996;18.980;2023-07-31T23:46:22;23.90;;;10.02;;
43646;SDS011;56152;49.996;18.980;2023-07-31T23:51:24;18.05;;;10.60;;
43646;SDS011;56152;49.996;18.980;2023-07-31T23:56:27;14.82;;;8.65;;
